Time;durP1;ratioP1;P1;durP2;ratioP2;P2;SDS_P1;SDS_P2;PMS_P1;PMS_P2;Temp;Humidity;BMP_temperature;BMP_pressure;BME280_temperature;BME280_humidity;BME280_pressure;Samples;Min_cycle;Max_cycle;Signal;HPM_P1;HPM_P2
2023/05/01 00:01:25;;;;;;;0.20;0.00;;;;;;;;;;5004242;28;20053;-87
2023/05/01 00:04:17;;;;;;;0.20;0.00;;;;;;;;;;5018047;28;20040;-88
2023/05/01 00:06:46;;;;;;;0.20;0.13;;;;;;;;;;4954564;28;20050;-86
2023/05/01 00:09:18;;;;;;;0.20;0.00;;;;;;;;;;5018851;28;20049;-87
2023/05/01 00:11:47;;;;;;;0.20;0.10;;;;;;;;;;5007409;28;20469;-87
2023/05/01 00:14:21;;;;;;;0.20;0.10;;;;;;;;;;5022280;28;20057;-87
2023/05/01 00:16:47;;;;;;;0.30;0.22;;;;;;;;;;5007759;28;20029;-87
2023/05/01 00:19:17;;;;;;;0.20;0.10;;;;;;;;;;5004225;28;20262;-86
2023/05/01 00:21:53;;;;;;;0.20;0.10;;;;;;;;;;5006726;28;20051;-86
2023/05/01 00:24:35;;;;;;;0.20;0.10;;;;;;;;;;5004084;28;20026;-87
2023/05/01 00:27:05;;;;;;;0.20;0.10;;;;;;;;;;5021681;28;20069;-86
2023/05/01 00:29:31;;;;;;;0.20;0.10;;;;;;;;;;5021292;28;20043;-86
2023/05/01 00:32:07;;;;;;;0.20;0.10;;;;;;;;;;4999867;28;20466;-88
2023/05/01 00:34:36;;;;;;;0.20;0.10;;;;;;;;;;5004336;28;20412;-87
2023/05/01 00:37:06;;;;;;;0.20;0.20;;;;;;;;;;4996498;28;20227;-87
2023/05/01 00:39:43;;;;;;;0.20;0.10;;;;;;;;;;5022998;28;20048;-87
2023/05/01 00:42:10;;;;;;;0.20;0.10;;;;;;;;;;4994900;28;20463;-88
2023/05/01 00:44:38;;;;;;;0.20;0.10;;;;;;;;;;4997049;28;20450;-87
2023/05/01 00:47:07;;;;;;;0.35;0.28;;;;;;;;;;4999383;28;20562;-88
2023/05/01 00:49:42;;;;;;;0.73;0.52;;;;;;;;;;5014135;28;20503;-88
2023/05/01 00:52:22;;;;;;;0.20;0.10;;;;;;;;;;4995865;28;20446;-87
2023/05/01 00:54:51;;;;;;;0.20;0.00;;;;;;;;;;5001034;28;20414;-88
2023/05/01 00:57:23;;;;;;;0.20;0.10;;;;;;;;;;5011948;28;20087;-88
2023/05/01 00:59:49;;;;;;;0.20;0.10;;;;;;;;;;4992202;28;20569;-87
2023/05/01 01:02:15;;;;;;;0.20;0.00;;;;;;;;;;4995821;28;20098;-88
2023/05/01 01:04:42;;;;;;;0.20;0.10;;;;;;;;;;5020228;28;20064;-88
2023/05/01 01:07:24;;;;;;;0.50;0.43;;;;;;;;;;5000650;28;20100;-88
2023/05/01 01:09:56;;;;;;;0.90;0.57;;;;;;;;;;5016751;28;20049;-88
2023/05/01 01:12:41;;;;;;;0.20;0.03;;;;;;;;;;5003648;28;20037;-88
2023/05/01 01:15:29;;;;;;;0.22;0.20;;;;;;;;;;5012605;28;20041;-88
2023/05/01 01:17:58;;;;;;;0.20;0.10;;;;;;;;;;5022298;28;20056;-88
2023/05/01 01:20:30;;;;;;;0.20;0.10;;;;;;;;;;5004584;28;20388;-88
2023/05/01 01:23:18;;;;;;;0.50;0.50;;;;;;;;;;5020483;28;20415;-88
2023/05/01 01:26:06;;;;;;;0.22;0.13;;;;;;;;;;5001742;28;20499;-89
2023/05/01 01:28:53;;;;;;;0.20;0.10;;;;;;;;;;5019265;28;20052;-86
2023/05/01 01:31:32;;;;;;;0.20;0.00;;;;;;;;;;5038063;28;20075;-85
2023/05/01 01:34:30;;;;;;;0.43;0.43;;;;;;;;;;5030905;28;20037;-87
2023/05/01 01:37:07;;;;;;;0.20;0.00;;;;;;;;;;5024747;28;20288;-86
2023/05/01 01:39:39;;;;;;;0.20;0.10;;;;;;;;;;5005875;28;20517;-88
2023/05/01 01:42:10;;;;;;;0.25;0.15;;;;;;;;;;5004649;28;20045;-87
2023/05/01 01:44:47;;;;;;;0.30;0.30;;;;;;;;;;5017920;28;20031;-87
2023/05/01 01:47:14;;;;;;;0.20;0.00;;;;;;;;;;5039411;28;20783;-87
2023/05/01 01:49:44;;;;;;;0.20;0.10;;;;;;;;;;5026204;28;20123;-86
2023/05/01 01:52:17;;;;;;;0.30;0.20;;;;;;;;;;5007397;28;20033;-88
2023/05/01 01:54:51;;;;;;;0.25;0.17;;;;;;;;;;5005818;28;20063;-87
2023/05/01 01:57:21;;;;;;;0.20;0.10;;;;;;;;;;5002194;28;20048;-88
2023/05/01 01:59:49;;;;;;;0.20;0.10;;;;;;;;;;5002380;28;20076;-88
2023/05/01 02:02:33;;;;;;;0.52;0.30;;;;;;;;;;4997533;28;20059;-88
2023/05/01 02:04:59;;;;;;;0.20;0.10;;;;;;;;;;5001620;28;20037;-88
2023/05/01 02:07:31;;;;;;;0.20;0.10;;;;;;;;;;5003567;28;20040;-88
2023/05/01 02:10:19;;;;;;;0.20;0.00;;;;;;;;;;4996732;28;20073;-88
2023/05/01 02:13:06;;;;;;;0.20;0.10;;;;;;;;;;5010845;28;20053;-88
2023/05/01 02:15:53;;;;;;;;;;;;;;;;;;;;;
2023/05/01 02:18:23;;;;;;;0.20;0.10;;;;;;;;;;5010261;28;20049;-86
2023/05/01 02:21:05;;;;;;;0.20;0.10;;;;;;;;;;5001754;28;20044;-89
2023/05/01 02:23:32;;;;;;;0.20;0.10;;;;;;;;;;4992915;28;20120;-88
2023/05/01 02:26:10;;;;;;;0.20;0.10;;;;;;;;;;5019705;28;20041;-89
2023/05/01 02:28:42;;;;;;;0.20;0.00;;;;;;;;;;5000148;28;20420;-87
2023/05/01 02:34:10;;;;;;;0.20;0.10;;;;;;;;;;5005326;28;20053;-89
2023/05/01 02:36:49;;;;;;;0.20;0.10;;;;;;;;;;4978145;28;20050;-88
2023/05/01 02:39:29;;;;;;;0.20;0.10;;;;;;;;;;5042630;23;20049;-89
2023/05/01 02:42:27;;;;;;;0.20;0.10;;;;;;;;;;5006227;28;20505;-87
2023/05/01 02:45:34;;;;;;;0.20;0.10;;;;;;;;;;4997814;28;20524;-89
2023/05/01 02:48:17;;;;;;;;;;;;;;;;;;;;;
2023/05/01 02:50:56;;;;;;;0.20;0.10;;;;;;;;;;4998135;28;20057;-87
2023/05/01 02:53:22;;;;;;;0.20;0.10;;;;;;;;;;4984229;28;20054;-86
2023/05/01 02:55:49;;;;;;;0.22;0.13;;;;;;;;;;4984955;28;20033;-88
2023/05/01 02:58:18;;;;;;;0.20;0.10;;;;;;;;;;4977843;28;20123;-87
2023/05/01 03:00:46;;;;;;;0.73;0.45;;;;;;;;;;4978811;28;20053;-86
2023/05/01 03:03:12;;;;;;;0.20;0.10;;;;;;;;;;4981099;28;20475;-86
2023/05/01 03:05:41;;;;;;;0.20;0.10;;;;;;;;;;4966438;28;20050;-87
2023/05/01 03:08:16;;;;;;;0.20;0.10;;;;;;;;;;4979640;28;20070;-85
2023/05/01 03:10:44;;;;;;;0.30;0.20;;;;;;;;;;4985053;28;20459;-87
2023/05/01 03:13:14;;;;;;;0.20;0.10;;;;;;;;;;4976656;28;20041;-88
2023/05/01 03:15:41;;;;;;;0.20;0.00;;;;;;;;;;4978306;28;20045;-88
2023/05/01 03:18:12;;;;;;;0.20;0.10;;;;;;;;;;4978464;28;20042;-89
2023/05/01 03:20:56;;;;;;;;;;;;;;;;;;;;;
2023/05/01 03:23:41;;;;;;;0.20;0.10;;;;;;;;;;4977088;28;20073;-89
2023/05/01 03:26:08;;;;;;;0.20;0.10;;;;;;;;;;4978489;28;20050;-89
2023/05/01 03:28:36;;;;;;;0.20;0.10;;;;;;;;;;4979466;28;20788;-87
2023/05/01 03:31:07;;;;;;;0.20;0.10;;;;;;;;;;4983254;28;20077;-88
2023/05/01 03:33:33;;;;;;;0.20;0.10;;;;;;;;;;4980218;28;20057;-86
2023/05/01 03:36:04;;;;;;;0.20;0.10;;;;;;;;;;4964050;28;20049;-87
2023/05/01 03:38:31;;;;;;;0.20;0.10;;;;;;;;;;4982103;28;20125;-88
2023/05/01 03:40:57;;;;;;;0.20;0.10;;;;;;;;;;4978416;28;20046;-87
2023/05/01 03:43:24;;;;;;;0.20;0.10;;;;;;;;;;4990626;28;20049;-87
2023/05/01 03:45:53;;;;;;;1.50;0.43;;;;;;;;;;4975565;28;20419;-87
2023/05/01 03:48:19;;;;;;;0.20;0.10;;;;;;;;;;4996816;23;20037;-87
2023/05/01 03:50:48;;;;;;;0.20;0.05;;;;;;;;;;5017720;28;20041;-88
2023/05/01 03:53:15;;;;;;;0.30;0.20;;;;;;;;;;4998688;28;20052;-87
2023/05/01 03:55:51;;;;;;;0.20;0.10;;;;;;;;;;5001234;28;20390;-86
2023/05/01 03:58:17;;;;;;;0.20;0.10;;;;;;;;;;5038269;23;20079;-87
2023/05/01 04:00:46;;;;;;;0.20;0.00;;;;;;;;;;5034040;28;20108;-87
2023/05/01 04:03:12;;;;;;;0.20;0.10;;;;;;;;;;5021835;28;20095;-87
2023/05/01 04:05:44;;;;;;;0.20;0.10;;;;;;;;;;5016849;28;20502;-87
2023/05/01 04:08:10;;;;;;;0.20;0.00;;;;;;;;;;5014087;28;20045;-86
2023/05/01 04:10:39;;;;;;;0.20;0.10;;;;;;;;;;4999231;28;20128;-86
2023/05/01 04:13:05;;;;;;;0.40;0.15;;;;;;;;;;5001719;28;20502;-85
2023/05/01 04:15:35;;;;;;;0.20;0.10;;;;;;;;;;5005989;28;20060;-89
2023/05/01 04:18:06;;;;;;;0.20;0.10;;;;;;;;;;4987877;28;20645;-86
2023/05/01 04:20:35;;;;;;;0.20;0.10;;;;;;;;;;4981801;28;20030;-88
2023/05/01 04:23:01;;;;;;;0.20;0.10;;;;;;;;;;4984973;28;20087;-88
2023/05/01 04:25:27;;;;;;;0.20;0.10;;;;;;;;;;4984741;28;20042;-86
2023/05/01 04:27:54;;;;;;;0.20;0.10;;;;;;;;;;5008133;28;20049;-86
2023/05/01 04:30:26;;;;;;;0.20;0.10;;;;;;;;;;5005374;28;20033;-86
2023/05/01 04:32:54;;;;;;;0.20;0.10;;;;;;;;;;4982640;28;20072;-87
2023/05/01 04:35:20;;;;;;;0.20;0.10;;;;;;;;;;4986475;28;20956;-88
2023/05/01 04:37:54;;;;;;;0.20;0.10;;;;;;;;;;4988612;28;20187;-87
2023/05/01 04:40:31;;;;;;;0.20;0.10;;;;;;;;;;4987831;28;20172;-87
2023/05/01 04:43:03;;;;;;;0.20;0.10;;;;;;;;;;5003574;28;20132;-86
2023/05/01 04:45:29;;;;;;;0.20;0.10;;;;;;;;;;4988140;28;20092;-88
2023/05/01 04:47:55;;;;;;;0.20;0.05;;;;;;;;;;4987738;28;20045;-88
2023/05/01 04:50:28;;;;;;;0.20;0.10;;;;;;;;;;4998431;28;20049;-88
2023/05/01 04:52:59;;;;;;;0.40;0.25;;;;;;;;;;4980448;28;20522;-87
2023/05/01 04:55:33;;;;;;;0.20;0.20;;;;;;;;;;4977202;28;20508;-88
2023/05/01 04:58:05;;;;;;;0.35;0.25;;;;;;;;;;4981734;28;20136;-87
2023/05/01 05:00:34;;;;;;;0.20;0.10;;;;;;;;;;4980696;28;20598;-88
2023/05/01 05:03:05;;;;;;;0.20;0.10;;;;;;;;;;5001345;28;20072;-89
2023/05/01 05:05:34;;;;;;;0.20;0.10;;;;;;;;;;4986986;28;20474;-87
2023/05/01 05:08:09;;;;;;;0.20;0.08;;;;;;;;;;4999255;28;20053;-84
2023/05/01 05:10:37;;;;;;;0.20;0.20;;;;;;;;;;4981440;28;20587;-86
2023/05/01 05:13:17;;;;;;;0.20;0.10;;;;;;;;;;5003649;28;20049;-87
2023/05/01 05:15:43;;;;;;;0.20;0.10;;;;;;;;;;5002422;28;20503;-86
2023/05/01 05:18:12;;;;;;;0.20;0.10;;;;;;;;;;4983834;28;20451;-86
2023/05/01 05:20:48;;;;;;;0.40;0.28;;;;;;;;;;4984865;28;20049;-86
2023/05/01 05:23:17;;;;;;;1.23;0.30;;;;;;;;;;4999467;28;20297;-86
2023/05/01 05:25:44;;;;;;;0.52;0.20;;;;;;;;;;4983058;28;20095;-86
2023/05/01 05:28:16;;;;;;;0.20;0.10;;;;;;;;;;4981816;28;20470;-86
2023/05/01 05:30:54;;;;;;;0.97;0.47;;;;;;;;;;4984477;28;20045;-84
2023/05/01 05:33:21;;;;;;;0.52;0.20;;;;;;;;;;4984966;28;20072;-86
2023/05/01 05:35:48;;;;;;;0.20;0.10;;;;;;;;;;4987826;28;20040;-86
2023/05/01 05:38:23;;;;;;;0.20;0.10;;;;;;;;;;4991973;28;20072;-87
2023/05/01 05:40:49;;;;;;;2.28;0.30;;;;;;;;;;5004321;28;20415;-88
2023/05/01 05:43:15;;;;;;;0.20;0.10;;;;;;;;;;4985327;28;20401;-87
2023/05/01 05:45:42;;;;;;;0.20;0.10;;;;;;;;;;5005030;28;20051;-87
2023/05/01 05:50:49;;;;;;;0.20;0.10;;;;;;;;;;5035773;22;20100;-87
2023/05/01 05:53:24;;;;;;;0.20;0.10;;;;;;;;;;4973174;28;20408;-88
2023/05/01 05:55:51;;;;;;;0.20;0.20;;;;;;;;;;4983200;28;20042;-88
2023/05/01 05:58:21;;;;;;;0.20;0.00;;;;;;;;;;4986290;28;20058;-86
2023/05/01 06:00:48;;;;;;;0.20;0.10;;;;;;;;;;4978481;28;20181;-85
2023/05/01 06:03:14;;;;;;;0.20;0.10;;;;;;;;;;4981722;28;20042;-87
2023/05/01 06:05:41;;;;;;;0.30;0.20;;;;;;;;;;4976759;28;20076;-86
2023/05/01 06:08:09;;;;;;;0.20;0.10;;;;;;;;;;4979937;28;20514;-87
2023/05/01 06:10:42;;;;;;;0.20;0.10;;;;;;;;;;4965161;28;20129;-86
2023/05/01 06:13:12;;;;;;;0.22;0.13;;;;;;;;;;4979852;28;20077;-86
2023/05/01 06:15:38;;;;;;;0.30;0.20;;;;;;;;;;4978325;28;20089;-87
2023/05/01 06:18:05;;;;;;;0.45;0.45;;;;;;;;;;4971046;28;20037;-86
2023/05/01 06:20:34;;;;;;;0.40;0.22;;;;;;;;;;4979407;28;20056;-87
2023/05/01 06:23:02;;;;;;;0.20;0.08;;;;;;;;;;4976352;28;20034;-86
2023/05/01 06:25:34;;;;;;;0.30;0.20;;;;;;;;;;4973167;28;20038;-87
2023/05/01 06:28:00;;;;;;;0.20;0.10;;;;;;;;;;4975827;28;20092;-87
2023/05/01 06:30:26;;;;;;;0.20;0.10;;;;;;;;;;4980305;28;20454;-86
2023/05/01 06:32:52;;;;;;;0.20;0.10;;;;;;;;;;4978549;28;20270;-87
2023/05/01 06:35:19;;;;;;;0.20;0.10;;;;;;;;;;4974000;28;20089;-86
2023/05/01 06:37:48;;;;;;;0.38;0.30;;;;;;;;;;4973583;28;20406;-87
2023/05/01 06:40:14;;;;;;;0.20;0.00;;;;;;;;;;4957339;28;20076;-85
2023/05/01 06:42:41;;;;;;;0.57;0.20;;;;;;;;;;4974732;28;20042;-87
2023/05/01 06:45:07;;;;;;;0.20;0.10;;;;;;;;;;4975312;28;20038;-87
2023/05/01 06:47:36;;;;;;;0.20;0.08;;;;;;;;;;4979714;28;20077;-87
2023/05/01 06:50:12;;;;;;;0.20;0.10;;;;;;;;;;4967515;28;20391;-87
2023/05/01 06:52:42;;;;;;;0.30;0.20;;;;;;;;;;4974960;28;20054;-88
2023/05/01 06:55:08;;;;;;;0.20;0.20;;;;;;;;;;4982351;28;20089;-87
2023/05/01 06:57:34;;;;;;;0.20;0.10;;;;;;;;;;5031586;23;20058;-82
2023/05/01 07:00:00;;;;;;;0.40;0.30;;;;;;;;;;4963210;28;20049;-83
2023/05/01 07:02:26;;;;;;;0.20;0.20;;;;;;;;;;4962782;28;20117;-83
2023/05/01 07:04:52;;;;;;;0.20;0.10;;;;;;;;;;4965812;28;20040;-83
2023/05/01 07:07:18;;;;;;;0.20;0.10;;;;;;;;;;4957218;28;20561;-82
2023/05/01 07:09:44;;;;;;;0.20;0.15;;;;;;;;;;4941342;28;20038;-83
2023/05/01 07:12:11;;;;;;;0.20;0.10;;;;;;;;;;4941009;28;20701;-84
2023/05/01 07:14:37;;;;;;;0.20;0.10;;;;;;;;;;4939457;28;20307;-83
2023/05/01 07:17:03;;;;;;;0.20;0.10;;;;;;;;;;4938161;28;20122;-83
2023/05/01 07:19:29;;;;;;;0.30;0.20;;;;;;;;;;4955219;28;20045;-83
2023/05/01 07:21:56;;;;;;;0.20;0.10;;;;;;;;;;4955118;28;20039;-84
2023/05/01 07:24:22;;;;;;;0.20;0.10;;;;;;;;;;4941770;28;20047;-84
2023/05/01 07:26:48;;;;;;;0.20;0.10;;;;;;;;;;4937454;28;20187;-84
2023/05/01 07:29:15;;;;;;;0.60;0.20;;;;;;;;;;4955248;28;20176;-83
2023/05/01 07:31:41;;;;;;;0.20;0.10;;;;;;;;;;4960324;28;20058;-82
2023/05/01 07:34:08;;;;;;;0.20;0.10;;;;;;;;;;4941125;28;20251;-83
2023/05/01 07:36:34;;;;;;;0.20;0.10;;;;;;;;;;4943254;28;20424;-83
2023/05/01 07:39:00;;;;;;;0.20;0.10;;;;;;;;;;4944169;28;20089;-83
2023/05/01 07:41:26;;;;;;;0.20;0.20;;;;;;;;;;4949757;28;20137;-82
2023/05/01 07:43:52;;;;;;;0.20;0.10;;;;;;;;;;4946294;28;20047;-82
2023/05/01 07:46:18;;;;;;;0.20;0.10;;;;;;;;;;4938802;28;20062;-83
2023/05/01 07:48:44;;;;;;;0.20;0.10;;;;;;;;;;4937827;28;20425;-82
2023/05/01 07:51:10;;;;;;;0.20;0.10;;;;;;;;;;4936111;28;20053;-81
2023/05/01 07:53:37;;;;;;;0.20;0.10;;;;;;;;;;4938296;28;20046;-82
2023/05/01 07:56:07;;;;;;;0.20;0.20;;;;;;;;;;4938854;28;20502;-82
2023/05/01 07:58:33;;;;;;;0.20;0.10;;;;;;;;;;4940164;28;20034;-82
2023/05/01 08:01:00;;;;;;;0.25;0.22;;;;;;;;;;4941517;28;20173;-83
2023/05/01 08:03:28;;;;;;;0.20;0.05;;;;;;;;;;4940199;28;20390;-82
2023/05/01 08:05:54;;;;;;;0.20;0.10;;;;;;;;;;4940075;28;20374;-82
2023/05/01 08:08:20;;;;;;;0.20;0.10;;;;;;;;;;4938481;28;20122;-83
2023/05/01 08:10:46;;;;;;;0.30;0.20;;;;;;;;;;4936916;28;20062;-83
2023/05/01 08:13:13;;;;;;;0.20;0.10;;;;;;;;;;4944108;28;20424;-82
2023/05/01 08:15:41;;;;;;;0.68;0.28;;;;;;;;;;4934905;28;20522;-83
2023/05/01 08:18:07;;;;;;;0.20;0.10;;;;;;;;;;4938768;28;20130;-83
2023/05/01 08:20:35;;;;;;;0.20;0.10;;;;;;;;;;4939811;28;20126;-82
2023/05/01 08:23:01;;;;;;;0.30;0.13;;;;;;;;;;4949338;28;20038;-82
2023/05/01 08:25:28;;;;;;;0.20;0.10;;;;;;;;;;4942453;28;20604;-85
2023/05/01 08:27:54;;;;;;;0.20;0.10;;;;;;;;;;4941465;28;20038;-83
2023/05/01 08:30:20;;;;;;;0.20;0.10;;;;;;;;;;4957076;28;20032;-82
2023/05/01 08:32:46;;;;;;;0.20;0.10;;;;;;;;;;4934633;28;20051;-83
2023/05/01 08:35:12;;;;;;;0.20;0.10;;;;;;;;;;4936050;28;20401;-83
2023/05/01 08:37:38;;;;;;;0.30;0.10;;;;;;;;;;4935642;28;20057;-83
2023/05/01 08:40:07;;;;;;;0.20;0.15;;;;;;;;;;4936845;28;20097;-82
2023/05/01 08:42:37;;;;;;;0.20;0.10;;;;;;;;;;4940926;28;20046;-83
2023/05/01 08:45:04;;;;;;;0.25;0.22;;;;;;;;;;4957808;28;20054;-83
2023/05/01 08:47:30;;;;;;;0.20;0.10;;;;;;;;;;4940736;28;20413;-83
2023/05/01 08:49:57;;;;;;;0.30;0.20;;;;;;;;;;4936899;28;20350;-84
2023/05/01 08:52:23;;;;;;;0.20;0.10;;;;;;;;;;4942445;28;20515;-83
2023/05/01 08:54:50;;;;;;;0.30;0.17;;;;;;;;;;4940317;28;20386;-83
2023/05/01 08:57:16;;;;;;;2.85;0.43;;;;;;;;;;4939475;28;20158;-83
2023/05/01 08:59:43;;;;;;;0.20;0.10;;;;;;;;;;4934634;28;20055;-83
2023/05/01 09:02:09;;;;;;;0.20;0.10;;;;;;;;;;4937114;28;20409;-83
2023/05/01 09:04:39;;;;;;;0.20;0.10;;;;;;;;;;4952130;28;20043;-83
2023/05/01 09:07:06;;;;;;;0.20;0.10;;;;;;;;;;4938092;28;20921;-84
2023/05/01 09:09:33;;;;;;;0.20;0.15;;;;;;;;;;4936878;28;20089;-83
2023/05/01 09:12:12;;;;;;;0.20;0.10;;;;;;;;;;4938325;28;20583;-83
2023/05/01 09:14:38;;;;;;;0.20;0.10;;;;;;;;;;4956165;28;20575;-83
2023/05/01 09:17:04;;;;;;;0.20;0.10;;;;;;;;;;4937741;28;20504;-83
2023/05/01 09:19:31;;;;;;;0.20;0.10;;;;;;;;;;4937435;28;20539;-83
2023/05/01 09:21:57;;;;;;;0.20;0.10;;;;;;;;;;4936421;28;20043;-83
2023/05/01 09:24:26;;;;;;;0.20;0.10;;;;;;;;;;4958092;28;20418;-84
2023/05/01 09:26:53;;;;;;;0.20;0.15;;;;;;;;;;4943387;28;20129;-83
2023/05/01 09:29:38;;;;;;;0.20;0.10;;;;;;;;;;4936556;28;20114;-83
2023/05/01 09:32:15;;;;;;;1.33;0.65;;;;;;;;;;4950532;28;20042;-83
2023/05/01 09:34:42;;;;;;;0.20;0.10;;;;;;;;;;4952295;28;20054;-83
2023/05/01 09:37:10;;;;;;;0.20;0.10;;;;;;;;;;4952314;28;20070;-84
2023/05/01 09:39:36;;;;;;;0.30;0.13;;;;;;;;;;4939643;28;20134;-83
2023/05/01 09:42:02;;;;;;;0.20;0.10;;;;;;;;;;4956674;28;20138;-83
2023/05/01 09:44:28;;;;;;;0.20;0.20;;;;;;;;;;4954236;28;20572;-82
2023/05/01 09:46:54;;;;;;;0.20;0.10;;;;;;;;;;4954448;28;20101;-84
2023/05/01 09:49:20;;;;;;;0.28;0.17;;;;;;;;;;4938531;28;20046;-83
2023/05/01 09:51:46;;;;;;;0.20;0.10;;;;;;;;;;4955404;28;20039;-82
2023/05/01 09:54:19;;;;;;;0.20;0.10;;;;;;;;;;4933654;28;20039;-84
2023/05/01 09:56:47;;;;;;;0.30;0.20;;;;;;;;;;4940008;28;20055;-83
2023/05/01 09:59:18;;;;;;;0.20;0.10;;;;;;;;;;4954263;28;20927;-83
2023/05/01 10:01:45;;;;;;;0.20;0.10;;;;;;;;;;4933715;28;20508;-85
2023/05/01 10:04:12;;;;;;;0.20;0.10;;;;;;;;;;4936817;28;20126;-83
2023/05/01 10:06:38;;;;;;;0.20;0.10;;;;;;;;;;4937161;28;20046;-83
2023/05/01 10:09:06;;;;;;;0.20;0.10;;;;;;;;;;4951896;28;20041;-84
2023/05/01 10:11:47;;;;;;;0.20;0.10;;;;;;;;;;4938218;28;20117;-83
2023/05/01 10:14:13;;;;;;;0.20;0.10;;;;;;;;;;4954137;28;20054;-83
2023/05/01 10:16:39;;;;;;;0.20;0.10;;;;;;;;;;4937038;28;20050;-84
2023/05/01 10:19:05;;;;;;;0.20;0.03;;;;;;;;;;4937763;28;20094;-84
2023/05/01 10:21:32;;;;;;;0.20;0.10;;;;;;;;;;4934754;28;20326;-84
2023/05/01 10:23:58;;;;;;;0.20;0.10;;;;;;;;;;4950838;28;20039;-83
2023/05/01 10:26:25;;;;;;;0.20;0.10;;;;;;;;;;4949465;28;20418;-84
2023/05/01 10:28:51;;;;;;;0.20;0.10;;;;;;;;;;4940470;28;20098;-84
2023/05/01 10:31:17;;;;;;;0.20;0.10;;;;;;;;;;4952815;28;20030;-83
2023/05/01 10:33:44;;;;;;;0.20;0.10;;;;;;;;;;4937688;28;20043;-83
2023/05/01 10:36:14;;;;;;;0.20;0.10;;;;;;;;;;4935218;28;20047;-85
2023/05/01 10:38:44;;;;;;;0.20;0.10;;;;;;;;;;4937476;28;20166;-85
2023/05/01 10:41:16;;;;;;;0.20;0.13;;;;;;;;;;4939072;28;20570;-84
2023/05/01 10:43:42;;;;;;;1.08;0.35;;;;;;;;;;4943084;28;20473;-84
2023/05/01 10:46:26;;;;;;;0.20;0.10;;;;;;;;;;4955889;28;20047;-87
2023/05/01 10:48:55;;;;;;;0.20;0.10;;;;;;;;;;4940160;28;20552;-85
2023/05/01 10:51:23;;;;;;;0.20;0.10;;;;;;;;;;4938026;28;20712;-84
2023/05/01 10:53:50;;;;;;;0.63;0.52;;;;;;;;;;4954645;28;20477;-82
2023/05/01 10:56:25;;;;;;;0.20;0.10;;;;;;;;;;4935673;28;20042;-82
2023/05/01 10:58:59;;;;;;;0.20;0.10;;;;;;;;;;4954027;28;20047;-83
2023/05/01 11:01:28;;;;;;;0.20;0.10;;;;;;;;;;4959873;28;20040;-83
2023/05/01 11:03:55;;;;;;;0.20;0.10;;;;;;;;;;4948493;28;20441;-83
2023/05/01 11:06:22;;;;;;;0.20;0.10;;;;;;;;;;4938618;28;20043;-83
2023/05/01 11:08:48;;;;;;;0.20;0.10;;;;;;;;;;4953987;28;20417;-82
2023/05/01 11:11:21;;;;;;;0.43;0.20;;;;;;;;;;4958107;28;20129;-84
2023/05/01 11:14:00;;;;;;;0.20;0.10;;;;;;;;;;4939161;28;20042;-84
2023/05/01 11:16:39;;;;;;;0.20;0.10;;;;;;;;;;4942987;28;20043;-84
2023/05/01 11:19:06;;;;;;;0.20;0.10;;;;;;;;;;4938994;28;20073;-84
2023/05/01 11:21:32;;;;;;;0.20;0.10;;;;;;;;;;4955736;28;20612;-84
2023/05/01 11:23:59;;;;;;;0.43;0.10;;;;;;;;;;4943011;28;20425;-83
2023/05/01 11:26:25;;;;;;;0.20;0.10;;;;;;;;;;4939365;28;20090;-84
2023/05/01 11:28:53;;;;;;;0.20;0.10;;;;;;;;;;4951507;28;20035;-85
2023/05/01 11:31:20;;;;;;;0.20;0.10;;;;;;;;;;4940163;28;20043;-84
2023/05/01 11:33:46;;;;;;;0.20;0.00;;;;;;;;;;4955142;28;20047;-83
2023/05/01 11:39:17;;;;;;;0.20;0.10;;;;;;;;;;4934743;28;20047;-84
2023/05/01 11:41:43;;;;;;;0.20;0.10;;;;;;;;;;4936598;28;20312;-85
2023/05/01 11:44:15;;;;;;;0.30;0.10;;;;;;;;;;4955606;28;20057;-84
2023/05/01 11:46:44;;;;;;;0.20;0.10;;;;;;;;;;4942171;28;20043;-84
2023/05/01 11:49:10;;;;;;;0.30;0.10;;;;;;;;;;4954902;28;20043;-85
2023/05/01 11:51:36;;;;;;;0.20;0.10;;;;;;;;;;4935777;28;20416;-85
2023/05/01 11:54:09;;;;;;;0.20;0.10;;;;;;;;;;4953921;28;20666;-85
2023/05/01 11:56:36;;;;;;;0.20;0.10;;;;;;;;;;4948003;28;20039;-86
2023/05/01 11:59:15;;;;;;;1.23;1.00;;;;;;;;;;4935864;28;20047;-84
2023/05/01 12:01:43;;;;;;;0.20;0.00;;;;;;;;;;4939751;28;20042;-84
2023/05/01 12:04:09;;;;;;;0.20;0.10;;;;;;;;;;4937907;28;20039;-85
2023/05/01 12:06:48;;;;;;;0.20;0.17;;;;;;;;;;4959745;28;20039;-84
2023/05/01 12:09:25;;;;;;;0.20;0.10;;;;;;;;;;4948206;28;20034;-85
2023/05/01 12:12:00;;;;;;;0.30;0.28;;;;;;;;;;4961022;28;20042;-85
2023/05/01 12:14:27;;;;;;;0.20;0.10;;;;;;;;;;4948515;28;20580;-85
2023/05/01 12:16:53;;;;;;;0.22;0.10;;;;;;;;;;4964481;28;20461;-85
2023/05/01 12:19:21;;;;;;;0.20;0.10;;;;;;;;;;4950754;28;20493;-85
2023/05/01 12:21:47;;;;;;;0.20;0.10;;;;;;;;;;4948826;28;20413;-86
2023/05/01 12:24:29;;;;;;;0.20;0.10;;;;;;;;;;4952077;28;20568;-86
2023/05/01 12:27:00;;;;;;;0.47;0.25;;;;;;;;;;4950113;28;20042;-83
2023/05/01 12:29:26;;;;;;;0.20;0.10;;;;;;;;;;4942123;28;20046;-85
2023/05/01 12:31:52;;;;;;;0.20;0.20;;;;;;;;;;4943414;28;20038;-83
2023/05/01 12:34:18;;;;;;;0.20;0.10;;;;;;;;;;4945169;28;20050;-84
2023/05/01 12:36:53;;;;;;;0.20;0.10;;;;;;;;;;4950873;28;20097;-83
2023/05/01 12:39:19;;;;;;;0.20;0.10;;;;;;;;;;4944368;28;20034;-83
2023/05/01 12:41:48;;;;;;;0.20;0.10;;;;;;;;;;4952142;28;20079;-84
2023/05/01 12:44:17;;;;;;;0.20;0.10;;;;;;;;;;4949299;28;20118;-85
2023/05/01 12:46:51;;;;;;;0.20;0.10;;;;;;;;;;4965453;28;20141;-85
2023/05/01 12:49:18;;;;;;;0.20;0.10;;;;;;;;;;4948048;28;20049;-84
2023/05/01 12:51:51;;;;;;;0.20;0.10;;;;;;;;;;4948978;28;20046;-83
2023/05/01 12:54:18;;;;;;;0.20;0.10;;;;;;;;;;4952600;28;20078;-83
2023/05/01 12:56:45;;;;;;;0.20;0.10;;;;;;;;;;4943174;28;20096;-85
2023/05/01 12:59:27;;;;;;;0.20;0.10;;;;;;;;;;5004393;23;20043;-86
2023/05/01 13:02:11;;;;;;;0.20;0.10;;;;;;;;;;4946886;28;20055;-87
2023/05/01 13:05:17;;;;;;;;;;;;;;;;;;;;;
2023/05/01 13:07:53;;;;;;;0.20;0.10;;;;;;;;;;4977566;28;20045;-88
2023/05/01 13:10:40;;;;;;;0.20;0.05;;;;;;;;;;4946259;28;20038;-85
2023/05/01 13:13:44;;;;;;;0.25;0.10;;;;;;;;;;4957003;28;20043;-86
2023/05/01 13:16:39;;;;;;;0.20;0.10;;;;;;;;;;4917074;28;20047;-85
2023/05/01 13:19:33;;;;;;;0.30;0.30;;;;;;;;;;4924853;28;20047;-88
2023/05/01 13:22:09;;;;;;;0.20;0.10;;;;;;;;;;4944872;28;20984;-86
2023/05/01 13:24:44;;;;;;;0.20;0.10;;;;;;;;;;4937082;28;20041;-88
2023/05/01 13:27:20;;;;;;;0.20;0.10;;;;;;;;;;4941616;28;20043;-86
2023/05/01 13:29:56;;;;;;;0.20;0.10;;;;;;;;;;4943700;28;20137;-86
2023/05/01 13:32:37;;;;;;;0.20;0.10;;;;;;;;;;4941956;28;20051;-89
2023/05/01 13:35:37;;;;;;;0.20;0.10;;;;;;;;;;4946654;28;20101;-86
2023/05/01 13:45:40;;;;;;;0.20;0.10;;;;;;;;;;4829749;29;20124;-88
2023/05/01 13:54:59;;;;;;;0.20;0.10;;;;;;;;;;4941034;28;20069;-86
2023/05/01 13:57:30;;;;;;;0.30;0.10;;;;;;;;;;4938794;28;20142;-85
2023/05/01 13:59:59;;;;;;;0.20;0.00;;;;;;;;;;4944380;28;20413;-88
2023/05/01 14:02:34;;;;;;;0.30;0.10;;;;;;;;;;4943468;28;20135;-85
2023/05/01 14:05:28;;;;;;;0.20;0.10;;;;;;;;;;4949801;28;22154;-86
2023/05/01 14:11:57;;;;;;;0.20;0.10;;;;;;;;;;4949072;28;20135;-88
2023/05/01 14:14:25;;;;;;;0.20;0.10;;;;;;;;;;4935200;28;20051;-86
2023/05/01 14:17:18;;;;;;;0.20;0.10;;;;;;;;;;4929932;28;20087;-87
2023/05/01 14:22:58;;;;;;;0.20;0.10;;;;;;;;;;4931547;28;20048;-86
2023/05/01 14:25:30;;;;;;;0.28;0.10;;;;;;;;;;4916284;28;20109;-87
2023/05/01 14:28:06;;;;;;;0.20;0.10;;;;;;;;;;4962052;23;20058;-86
2023/05/01 14:30:47;;;;;;;0.20;0.05;;;;;;;;;;4990239;28;20069;-86
2023/05/01 14:33:59;;;;;;;;;;;;;;;;;;;;;
2023/05/01 14:37:16;;;;;;;0.20;0.10;;;;;;;;;;4984565;28;20053;-87
2023/05/01 14:39:55;;;;;;;0.20;0.10;;;;;;;;;;4935435;28;20102;-86
2023/05/01 14:42:28;;;;;;;0.20;0.10;;;;;;;;;;4960992;28;20046;-86
2023/05/01 14:48:30;;;;;;;0.20;0.10;;;;;;;;;;4960953;28;20047;-88
2023/05/01 14:51:38;;;;;;;;;;;;;;;;;;;;;
2023/05/01 14:54:12;;;;;;;0.20;0.10;;;;;;;;;;4968691;28;20062;-88
2023/05/01 14:57:26;;;;;;;0.20;0.10;;;;;;;;;;4966447;28;20117;-87
2023/05/01 14:59:53;;;;;;;0.20;0.10;;;;;;;;;;4890507;28;20058;-87
2023/05/01 15:05:48;;;;;;;;;;;;;;;;;;;;;
2023/05/01 15:09:13;;;;;;;0.20;0.10;;;;;;;;;;4988357;22;20049;-88
2023/05/01 15:23:56;;;;;;;0.43;0.22;;;;;;;;;;4957205;28;20037;-87
2023/05/01 15:26:35;;;;;;;0.20;0.10;;;;;;;;;;4973233;28;20532;-87
2023/05/01 15:29:26;;;;;;;0.20;0.10;;;;;;;;;;4977437;28;20421;-89
2023/05/01 15:32:35;;;;;;;0.20;0.20;;;;;;;;;;4961948;28;20049;-87
2023/05/01 15:34:55;;;;;;;0.20;0.10;;;;;;;;;;4954805;28;20555;-86
2023/05/01 15:38:05;;;;;;;;;;;;;;;;;;;;;
2023/05/01 15:40:32;;;;;;;0.30;0.30;;;;;;;;;;4984504;28;20214;-84
2023/05/01 15:43:15;;;;;;;;;;;;;;;;;;;;;
2023/05/01 15:52:13;;;;;;;0.20;0.10;;;;;;;;;;5003738;28;20114;-88
2023/05/01 16:07:22;;;;;;;0.50;0.28;;;;;;;;;;5000620;28;20041;-87
2023/05/01 16:10:11;;;;;;;0.20;0.17;;;;;;;;;;4988017;28;20053;-85
2023/05/01 16:13:49;;;;;;;;;;;;;;;;;;;;;
2023/05/01 16:16:57;;;;;;;0.20;0.03;;;;;;;;;;4996483;28;20132;-86
2023/05/01 16:23:04;;;;;;;0.68;0.25;;;;;;;;;;4999762;28;20052;-87
2023/05/01 16:39:51;;;;;;;0.20;0.10;;;;;;;;;;5215958;22;20169;-87
2023/05/01 16:42:52;;;;;;;0.20;0.10;;;;;;;;;;4965526;28;20121;-87
2023/05/01 16:46:03;;;;;;;0.20;0.10;;;;;;;;;;4922325;28;20065;-86
2023/05/01 16:52:34;;;;;;;0.20;0.10;;;;;;;;;;4910205;29;20470;-87
2023/05/01 16:55:51;;;;;;;;;;;;;;;;;;;;;